Time;durP1;ratioP1;P1;durP2;ratioP2;P2;SDS_P1;SDS_P2;PMS_P1;PMS_P2;Temp;Humidity;BMP_temperature;BMP_pressure;BME280_temperature;BME280_humidity;BME280_pressure;Samples;Min_cycle;Max_cycle;Signal;HPM_P1;HPM_P2
2022/09/28 00:01:53;;;;;;;4.63;2.20;;;;;;;10.13;66.25;91464.69;2053448;70;20288;-78
2022/09/28 00:04:19;;;;;;;2.40;1.90;;;;;;;10.17;66.11;91467.66;2051086;70;20162;-78
2022/09/28 00:06:48;;;;;;;3.60;1.92;;;;;;;10.32;64.48;91450.06;2050887;69;20212;-78
2022/09/28 00:09:16;;;;;;;2.67;2.03;;;;;;;10.23;65.06;91416.59;2050873;70;20139;-77
2022/09/28 00:11:42;;;;;;;4.47;1.92;;;;;;;10.08;65.57;91409.63;2051050;70;20225;-76
2022/09/28 00:14:09;;;;;;;4.22;2.00;;;;;;;10.15;64.53;91398.00;2050909;70;20181;-79
2022/09/28 00:16:40;;;;;;;4.07;2.05;;;;;;;10.16;64.72;91395.91;2051249;69;20139;-79
2022/09/28 00:19:07;;;;;;;2.88;2.08;;;;;;;10.17;64.66;91389.66;2051085;69;20695;-75
2022/09/28 00:21:35;;;;;;;2.47;1.90;;;;;;;10.19;64.34;91403.09;2051354;70;20278;-77
2022/09/28 00:24:13;;;;;;;5.47;2.20;;;;;;;10.21;65.89;91403.16;2051054;70;20216;-79
2022/09/28 00:26:41;;;;;;;4.15;2.10;;;;;;;10.22;64.21;91395.44;2051187;70;20636;-78
2022/09/28 00:29:12;;;;;;;3.63;2.00;;;;;;;10.15;66.10;91388.84;2050426;70;20146;-79
2022/09/28 00:31:37;;;;;;;3.78;2.13;;;;;;;10.01;65.66;91397.41;2051426;70;20190;-79
2022/09/28 00:34:04;;;;;;;4.47;2.28;;;;;;;9.97;66.94;91402.16;2051530;70;20137;-77
2022/09/28 00:36:31;;;;;;;2.88;2.03;;;;;;;10.13;65.98;91391.59;2051379;70;20221;-78
2022/09/28 00:38:58;;;;;;;3.10;1.98;;;;;;;10.13;66.08;91389.50;2051392;70;20162;-78
2022/09/28 00:41:25;;;;;;;3.55;2.20;;;;;;;10.19;64.34;91389.75;2051479;70;20190;-78
2022/09/28 00:43:53;;;;;;;2.40;1.80;;;;;;;10.12;66.19;91401.38;2047730;70;20513;-75
2022/09/28 00:46:45;;;;;;;3.65;1.70;;;;;;;9.72;67.48;91403.22;2047513;70;20554;-79
2022/09/28 00:49:14;;;;;;;4.18;2.05;;;;;;;9.94;66.80;91395.72;2050344;70;20613;-77
2022/09/28 00:51:43;;;;;;;4.10;2.10;;;;;;;10.12;64.81;91390.13;2051156;70;20134;-78
2022/09/28 00:54:11;;;;;;;4.03;2.35;;;;;;;10.12;64.65;91382.41;2045214;70;20585;-77
2022/09/28 00:56:41;;;;;;;3.63;1.80;;;;;;;9.84;66.44;91381.94;2050753;70;20147;-77
2022/09/28 00:59:08;;;;;;;3.55;1.70;;;;;;;9.92;65.31;91375.94;2051113;70;20146;-78
2022/09/28 01:01:33;;;;;;;2.83;1.90;;;;;;;10.10;64.48;91373.19;2047666;70;20166;-77
2022/09/28 01:04:01;;;;;;;4.13;2.15;;;;;;;9.62;67.84;91381.75;2050312;70;20134;-77
2022/09/28 01:06:32;;;;;;;2.88;2.05;;;;;;;9.41;69.52;91374.50;2047932;70;20150;-77
2022/09/28 01:09:01;;;;;;;2.85;1.67;;;;;;;9.65;66.75;91369.22;2047649;70;20201;-77
2022/09/28 01:11:31;;;;;;;3.35;1.73;;;;;;;9.96;65.16;91359.25;2047318;70;20197;-78
2022/09/28 01:13:58;;;;;;;2.55;1.90;;;;;;;9.95;65.82;91357.09;2047697;70;20216;-76
2022/09/28 01:16:44;;;;;;;2.78;1.90;;;;;;;9.98;65.77;91362.16;2050202;70;20178;-77
2022/09/28 01:19:32;;;;;;;3.08;1.60;;;;;;;10.01;64.94;91334.84;2050160;70;20138;-76
2022/09/28 01:22:19;;;;;;;1.88;1.60;;;;;;;9.96;66.85;91347.28;2050017;70;20194;-77
2022/09/28 01:24:47;;;;;;;2.85;1.85;;;;;;;8.78;73.10;91340.13;2050897;70;20205;-77
2022/09/28 01:27:49;;;;;;;3.38;1.80;;;;;;;9.57;68.80;91331.63;2050698;70;20142;-79
2022/09/28 01:30:18;;;;;;;3.13;2.10;;;;;;;9.75;66.65;91321.16;2048602;70;20221;-79
2022/09/28 01:33:11;;;;;;;5.43;2.05;;;;;;;9.78;67.06;91317.06;2050999;70;20161;-78
2022/09/28 01:35:45;;;;;;;6.07;2.10;;;;;;;9.80;66.01;91311.53;2047628;70;20145;-78
2022/09/28 01:38:17;;;;;;;3.38;2.00;;;;;;;9.66;66.94;91291.97;2050941;70;20696;-76
2022/09/28 01:40:46;;;;;;;2.47;1.60;;;;;;;9.79;64.65;91295.31;2050211;70;20258;-76
2022/09/28 01:43:27;;;;;;;3.38;2.15;;;;;;;9.61;67.17;91281.22;2047270;70;20212;-78
2022/09/28 01:46:01;;;;;;;2.70;1.80;;;;;;;9.53;68.08;91301.28;2050538;70;20170;-77
2022/09/28 01:48:52;;;;;;;;;;;;;;;9.47;67.40;91317.16;2047567;70;20229;-77
2022/09/28 01:51:30;;;;;;;5.65;1.92;;;;;;;9.58;66.13;91296.56;2050186;70;20162;-78
2022/09/28 01:54:05;;;;;;;5.03;1.88;;;;;;;9.61;65.32;91301.63;2051062;70;20192;-77
2022/09/28 01:56:51;;;;;;;4.22;2.00;;;;;;;9.48;67.20;91290.50;2050671;70;20689;-77
2022/09/28 01:59:32;;;;;;;7.90;2.22;;;;;;;9.39;67.18;91293.00;2050309;70;20606;-78
2022/09/28 02:02:03;;;;;;;2.08;1.88;;;;;;;9.30;67.57;91282.78;2050976;70;20244;-77
2022/09/28 02:04:35;;;;;;;2.13;1.70;;;;;;;9.25;67.17;91272.72;2050245;70;20161;-77
2022/09/28 02:07:07;;;;;;;4.63;1.90;;;;;;;9.20;67.18;91267.56;2050933;70;20137;-78
2022/09/28 02:09:43;;;;;;;2.63;1.87;;;;;;;9.16;67.42;91252.00;2050067;70;20198;-75
2022/09/28 02:12:15;;;;;;;6.75;2.92;;;;;;;9.30;65.83;91245.53;2049486;70;20503;-76
2022/09/28 02:14:45;;;;;;;2.22;1.88;;;;;;;9.23;66.91;91255.06;2049874;70;20194;-76
2022/09/28 02:17:11;;;;;;;3.00;2.10;;;;;;;9.17;67.03;91258.34;2047608;70;20143;-79
2022/09/28 02:19:39;;;;;;;2.50;1.70;;;;;;;9.14;67.30;91249.09;2050060;70;20574;-79
2022/09/28 02:22:32;;;;;;;2.03;1.35;;;;;;;8.80;68.01;91250.44;2047384;70;20203;-78
2022/09/28 02:25:08;;;;;;;2.08;1.60;;;;;;;8.99;67.82;91254.75;2048065;70;20174;-78
2022/09/28 02:27:44;;;;;;;2.35;1.80;;;;;;;9.04;66.56;91245.16;2049856;70;20190;-78
2022/09/28 02:30:11;;;;;;;3.20;1.90;;;;;;;9.11;66.33;91238.41;2047623;70;20151;-76
2022/09/28 02:32:41;;;;;;;4.35;2.30;;;;;;;8.95;68.53;91246.16;2047235;70;20494;-76
2022/09/28 02:35:10;;;;;;;3.58;2.00;;;;;;;8.93;68.08;91243.97;2049815;70;20147;-77
2022/09/28 02:37:38;;;;;;;2.70;1.67;;;;;;;9.05;67.65;91247.31;2047864;70;20139;-77
2022/09/28 02:40:12;;;;;;;1.98;1.65;;;;;;;9.06;67.88;91236.81;2050060;70;20269;-77
2022/09/28 02:43:12;;;;;;;3.75;2.20;;;;;;;9.08;67.59;91237.63;2050172;70;20273;-77
2022/09/28 02:45:49;;;;;;;3.08;2.35;;;;;;;8.55;71.20;91238.13;2040052;70;20223;-79
2022/09/28 02:48:39;;;;;;;2.78;1.88;;;;;;;8.98;68.71;91233.63;2037343;70;20183;-77
2022/09/28 02:51:30;;;;;;;5.07;2.15;;;;;;;9.13;67.06;91224.47;2039881;70;20548;-75
2022/09/28 02:54:15;;;;;;;3.35;2.10;;;;;;;8.73;70.26;91229.78;2039593;70;20137;-76
2022/09/28 02:57:12;;;;;;;4.22;2.10;;;;;;;9.01;68.44;91209.91;2039689;70;20151;-76
2022/09/28 03:00:07;;;;;;;2.33;1.90;;;;;;;9.05;68.66;91205.19;2037030;70;20182;-76
2022/09/28 03:02:51;;;;;;;3.33;2.13;;;;;;;9.12;68.31;91197.78;2036922;70;20620;-75
2022/09/28 03:05:54;;;;;;;5.53;1.95;;;;;;;9.05;68.63;91196.78;2039674;70;20155;-78
2022/09/28 03:08:43;;;;;;;4.60;1.77;;;;;;;9.18;67.95;91188.88;2040222;70;20174;-78
2022/09/28 03:11:17;;;;;;;4.38;2.30;;;;;;;9.14;68.13;91203.47;2037419;70;20282;-78
2022/09/28 03:13:46;;;;;;;4.22;2.10;;;;;;;9.29;66.19;91193.53;2037459;70;20148;-79
2022/09/28 03:16:15;;;;;;;2.92;2.20;;;;;;;9.06;69.17;91191.88;2037516;70;20357;-78
2022/09/28 03:18:43;;;;;;;4.43;2.53;;;;;;;8.15;74.20;91190.06;2036910;70;20540;-78
2022/09/28 03:21:13;;;;;;;3.55;2.47;;;;;;;8.86;70.33;91189.69;2037226;70;20314;-77
2022/09/28 03:23:40;;;;;;;5.10;2.65;;;;;;;9.07;69.01;91193.34;2049965;70;20233;-79
2022/09/28 03:26:15;;;;;;;4.07;2.30;;;;;;;9.09;69.43;91168.88;2050077;70;20222;-77
2022/09/28 03:28:41;;;;;;;3.65;2.45;;;;;;;9.14;68.19;91173.31;2049923;70;20182;-77
2022/09/28 03:31:15;;;;;;;4.55;2.80;;;;;;;9.04;69.03;91167.28;2050435;70;20151;-78
2022/09/28 03:33:41;;;;;;;4.65;2.35;;;;;;;9.21;67.46;91176.34;2050117;70;20146;-78
2022/09/28 03:36:08;;;;;;;3.53;2.25;;;;;;;9.11;68.42;91168.97;2050211;70;20138;-79
2022/09/28 03:38:35;;;;;;;4.53;2.63;;;;;;;9.09;68.04;91176.59;2050196;70;20165;-78
2022/09/28 03:41:00;;;;;;;5.30;2.33;;;;;;;9.12;67.90;91178.84;2047402;70;20159;-79
2022/09/28 03:43:32;;;;;;;3.20;2.28;;;;;;;9.20;68.47;91181.25;2050331;70;20146;-77
2022/09/28 03:46:01;;;;;;;2.83;2.40;;;;;;;9.14;68.83;91181.00;2047072;70;20147;-79
2022/09/28 03:48:31;;;;;;;3.45;2.28;;;;;;;9.20;68.83;91186.13;2048266;70;20598;-78
2022/09/28 03:50:59;;;;;;;4.75;2.30;;;;;;;9.21;67.69;91188.34;2048102;70;20324;-79
2022/09/28 03:53:25;;;;;;;6.68;2.35;;;;;;;8.67;71.43;91187.44;2050151;70;20567;-78
2022/09/28 03:55:52;;;;;;;3.17;1.90;;;;;;;8.88;69.89;91191.84;2050186;70;20193;-80
2022/09/28 03:58:19;;;;;;;3.03;2.17;;;;;;;9.05;68.96;91188.38;2048028;70;20157;-79
2022/09/28 04:00:45;;;;;;;2.58;1.70;;;;;;;9.05;69.58;91198.88;2047047;70;20202;-80
2022/09/28 04:03:11;;;;;;;3.22;2.30;;;;;;;9.00;70.38;91195.16;2050547;70;20238;-77
2022/09/28 04:05:37;;;;;;;3.78;2.45;;;;;;;9.16;68.85;91184.63;2050506;70;20151;-75
2022/09/28 04:08:02;;;;;;;5.07;2.25;;;;;;;9.15;69.23;91185.25;2050279;70;20234;-79
2022/09/28 04:10:28;;;;;;;5.45;2.58;;;;;;;8.99;69.30;91178.97;2047982;70;20162;-79
2022/09/28 04:12:57;;;;;;;3.65;2.40;;;;;;;9.09;68.05;91176.59;2050744;70;20226;-78
2022/09/28 04:15:24;;;;;;;3.47;2.25;;;;;;;9.38;66.20;91176.38;2051287;70;20157;-75
2022/09/28 04:17:50;;;;;;;4.78;2.70;;;;;;;9.21;68.56;91170.75;2047705;70;20146;-77
2022/09/28 04:20:33;;;;;;;4.03;2.45;;;;;;;9.24;67.42;91170.19;2047785;70;20135;-79
2022/09/28 04:23:02;;;;;;;3.85;2.10;;;;;;;9.28;67.56;91159.13;2050657;70;20174;-79
2022/09/28 04:25:28;;;;;;;10.90;6.00;;;;;;;9.18;68.15;91147.47;2045318;70;20154;-78
2022/09/28 04:30:39;;;;;;;5.30;3.85;;;;;;;9.21;68.23;91145.47;2047481;70;20170;-77
2022/09/28 04:33:05;;;;;;;7.20;3.90;;;;;;;9.26;67.75;91139.41;2050344;70;20206;-80
2022/09/28 04:35:30;;;;;;;4.70;3.10;;;;;;;9.27;68.40;91138.03;2047942;70;20177;-80
2022/09/28 04:37:56;;;;;;;4.93;2.58;;;;;;;9.26;68.74;91130.97;2051338;70;20304;-80
2022/09/28 04:40:22;;;;;;;5.07;2.78;;;;;;;9.28;68.46;91142.28;2047875;70;20522;-80
2022/09/28 04:42:55;;;;;;;6.13;2.80;;;;;;;9.30;67.55;91133.94;2050720;70;20139;-79
2022/09/28 04:45:22;;;;;;;4.13;2.20;;;;;;;9.27;67.57;91126.09;2050392;70;20234;-79
2022/09/28 04:47:48;;;;;;;3.20;2.33;;;;;;;9.31;66.64;91121.34;2050253;70;20166;-80
2022/09/28 04:50:29;;;;;;;4.18;2.75;;;;;;;9.22;67.55;91132.91;2047661;70;20234;-80
2022/09/28 04:53:13;;;;;;;3.42;2.95;;;;;;;9.15;67.74;91120.69;2051639;70;20479;-79
2022/09/28 04:55:39;;;;;;;5.20;2.70;;;;;;;9.35;67.00;91123.59;2051541;70;20158;-79
2022/09/28 04:58:04;;;;;;;5.28;3.22;;;;;;;9.31;67.67;91115.72;2051619;70;20142;-79
2022/09/28 05:00:34;;;;;;;4.65;2.80;;;;;;;9.45;65.41;91112.03;2048258;70;20178;-77
2022/09/28 05:03:26;;;;;;;3.47;2.58;;;;;;;9.33;67.17;91112.28;2049889;70;20237;-75
2022/09/28 05:06:15;;;;;;;4.35;2.47;;;;;;;9.37;66.47;91118.78;2051853;70;20197;-79
2022/09/28 05:08:44;;;;;;;5.10;2.63;;;;;;;9.47;66.71;91123.34;2051640;70;20272;-76
2022/09/28 05:11:11;;;;;;;5.13;2.13;;;;;;;9.43;67.05;91121.09;2048166;70;20596;-77
2022/09/28 05:13:44;;;;;;;5.43;2.10;;;;;;;9.52;64.88;91114.44;2047874;70;20166;-79
2022/09/28 05:16:12;;;;;;;4.47;2.42;;;;;;;9.51;65.84;91115.09;2047916;70;20143;-77
2022/09/28 05:18:59;;;;;;;5.05;2.90;;;;;;;9.41;66.94;91124.56;2049153;70;20166;-76
2022/09/28 05:21:26;;;;;;;5.93;3.28;;;;;;;9.41;67.66;91116.13;2050897;70;20142;-77
2022/09/28 05:23:54;;;;;;;2.97;2.28;;;;;;;9.41;66.93;91104.91;2050749;70;20241;-77
2022/09/28 05:26:21;;;;;;;5.68;3.28;;;;;;;9.47;65.91;91112.09;2050898;70;20166;-76
2022/09/28 05:28:49;;;;;;;7.80;2.85;;;;;;;9.45;66.79;91109.22;2050832;70;20187;-78
2022/09/28 05:31:21;;;;;;;2.93;2.40;;;;;;;9.48;66.89;91110.75;2051689;70;20506;-79
2022/09/28 05:34:10;;;;;;;5.53;2.00;;;;;;;9.38;67.48;91108.25;2046235;70;20652;-78
2022/09/28 05:36:36;;;;;;;3.17;2.50;;;;;;;9.38;67.42;91103.38;2050878;70;20299;-79
2022/09/28 05:39:02;;;;;;;3.67;2.50;;;;;;;9.47;66.09;91100.88;2047852;70;20590;-78
2022/09/28 05:41:28;;;;;;;6.97;2.00;;;;;;;9.49;67.12;91110.13;2048241;70;20196;-79
2022/09/28 05:43:54;;;;;;;3.30;2.58;;;;;;;9.45;66.09;91107.16;2050582;70;20154;-80
2022/09/28 05:46:22;;;;;;;4.22;2.50;;;;;;;9.53;65.76;91103.91;2050961;70;20628;-79
2022/09/28 05:48:51;;;;;;;3.47;2.45;;;;;;;9.55;65.54;91092.78;2048425;70;20497;-78
2022/09/28 05:51:18;;;;;;;81.90;38.15;;;;;;;8.98;70.73;91094.06;2048412;70;20601;-80
2022/09/28 05:53:43;;;;;;;5.75;3.10;;;;;;;8.78;71.41;91093.94;2050517;70;20154;-78
2022/09/28 05:56:09;;;;;;;4.03;3.10;;;;;;;8.92;71.28;91091.00;2048127;70;20233;-78
2022/09/28 05:58:39;;;;;;;22.80;8.75;;;;;;;9.14;70.96;91099.59;2050857;70;20193;-79
2022/09/28 06:01:04;;;;;;;8.30;4.70;;;;;;;9.14;70.31;91096.78;2050934;70;20356;-78
2022/09/28 06:03:30;;;;;;;7.45;3.90;;;;;;;9.34;68.95;91094.06;2050800;70;20154;-78
2022/09/28 06:05:55;;;;;;;7.00;3.60;;;;;;;9.50;67.73;91091.16;2050806;70;20166;-78
2022/09/28 06:08:22;;;;;;;6.13;3.30;;;;;;;9.56;67.84;91089.31;2048049;70;20142;-79
2022/09/28 06:11:11;;;;;;;11.00;3.08;;;;;;;9.59;67.90;91096.47;2045844;70;20240;-78
2022/09/28 06:13:39;;;;;;;6.43;3.72;;;;;;;9.58;68.28;91099.91;2050807;70;20146;-75
2022/09/28 06:16:06;;;;;;;5.43;4.03;;;;;;;9.64;67.51;91105.75;2050871;70;20154;-80
2022/09/28 06:18:33;;;;;;;8.70;5.65;;;;;;;9.10;71.22;91099.44;2050890;70;20174;-76
2022/09/28 06:21:23;;;;;;;9.30;4.72;;;;;;;9.27;70.50;91101.53;2050449;70;20590;-78
2022/09/28 06:23:49;;;;;;;4.47;3.55;;;;;;;9.50;68.17;91105.22;2048276;70;20622;-76
2022/09/28 06:26:15;;;;;;;5.82;3.42;;;;;;;9.60;68.65;91097.91;2050726;70;20154;-78
2022/09/28 06:28:43;;;;;;;9.00;3.95;;;;;;;9.60;68.86;91100.69;2050278;70;20464;-77
2022/09/28 06:31:09;;;;;;;7.10;3.38;;;;;;;9.63;68.96;91095.91;2050771;70;20165;-79
2022/09/28 06:33:42;;;;;;;6.05;3.00;;;;;;;9.70;68.74;91099.66;2050926;70;20169;-78
2022/09/28 06:36:09;;;;;;;5.15;3.53;;;;;;;9.73;68.32;91099.09;2047940;70;20169;-78
2022/09/28 06:38:34;;;;;;;6.05;3.92;;;;;;;9.84;67.00;91106.53;2051375;70;20149;-79
2022/09/28 06:41:02;;;;;;;6.35;3.88;;;;;;;9.88;67.62;91109.50;2050861;70;20157;-78
2022/09/28 06:43:28;;;;;;;5.50;3.80;;;;;;;9.73;68.77;91115.94;2051576;70;20138;-78
2022/09/28 06:46:13;;;;;;;5.20;3.40;;;;;;;9.71;66.67;91109.50;2051475;70;20212;-78
2022/09/28 06:48:57;;;;;;;23.23;11.18;;;;;;;9.70;68.38;91114.41;2051387;70;20161;-77
2022/09/28 06:51:45;;;;;;;12.15;6.70;;;;;;;9.81;68.45;91113.44;2051244;70;20197;-75
2022/09/28 06:54:18;;;;;;;;;;;;;;;9.95;67.52;91106.94;2051426;70;20237;-78
2022/09/28 06:57:06;;;;;;;12.60;8.43;;;;;;;10.05;65.04;91108.00;2051188;70;20121;-77
2022/09/28 06:59:32;;;;;;;9.35;5.50;;;;;;;9.97;66.61;91104.91;2047770;70;20158;-79
2022/09/28 07:01:59;;;;;;;8.73;4.45;;;;;;;10.08;65.39;91101.09;2047732;70;20492;-79
2022/09/28 07:04:53;;;;;;;5.13;3.35;;;;;;;10.12;64.78;91103.31;2047889;70;20150;-77
2022/09/28 07:07:37;;;;;;;18.75;10.55;;;;;;;9.74;69.99;91106.16;2050592;70;20142;-78
2022/09/28 07:10:27;;;;;;;18.27;9.80;;;;;;;9.71;70.14;91103.91;2051052;70;20169;-78
2022/09/28 07:13:27;;;;;;;9.63;6.05;;;;;;;9.79;69.14;91109.84;2043979;70;20269;-76
2022/09/28 07:16:01;;;;;;;7.55;4.60;;;;;;;10.00;68.64;91102.91;2050528;70;20225;-78
2022/09/28 07:18:28;;;;;;;6.38;4.40;;;;;;;10.04;68.33;91103.78;2050629;70;20142;-77
2022/09/28 07:20:58;;;;;;;6.78;3.45;;;;;;;9.71;70.70;91117.94;2050690;70;20153;-78
2022/09/28 07:23:31;;;;;;;8.60;6.25;;;;;;;9.90;70.27;91097.63;2050622;70;20223;-75
2022/09/28 07:26:15;;;;;;;8.43;4.90;;;;;;;9.88;70.11;91101.06;2051266;70;20598;-75
2022/09/28 07:28:48;;;;;;;;;;;;;;;10.45;67.17;91105.28;2050711;70;20150;-78
2022/09/28 07:31:37;;;;;;;53.58;25.55;;;;;;;10.70;65.04;91106.84;2049231;70;20138;-77
2022/09/28 07:34:40;;;;;;;13.95;7.60;;;;;;;10.68;64.38;91103.97;2046834;70;20268;-77
2022/09/28 07:37:14;;;;;;;14.55;8.25;;;;;;;10.88;62.73;91106.75;2051409;70;20181;-77
2022/09/28 07:42:29;;;;;;;9.52;5.78;;;;;;;10.90;63.98;91101.16;2050384;70;20617;-77
2022/09/28 07:44:58;;;;;;;14.35;7.82;;;;;;;10.96;64.12;91107.03;2047783;70;20134;-77
2022/09/28 07:47:27;;;;;;;9.45;5.40;;;;;;;11.00;65.61;91103.63;2050619;70;20164;-78
2022/09/28 07:50:12;;;;;;;11.25;6.05;;;;;;;11.02;63.61;91107.22;2051165;70;20158;-77
2022/09/28 07:52:56;;;;;;;13.75;7.28;;;;;;;11.28;63.32;91117.94;2048176;70;20150;-78
2022/09/28 07:55:42;;;;;;;11.63;6.45;;;;;;;11.11;65.94;91119.47;2051219;70;20146;-76
2022/09/28 07:58:23;;;;;;;8.85;5.40;;;;;;;11.22;64.20;91121.25;2050463;70;20511;-75
2022/09/28 08:01:09;;;;;;;7.53;4.57;;;;;;;10.82;66.73;91120.63;2050136;70;20335;-75
2022/09/28 08:03:36;;;;;;;6.85;4.53;;;;;;;11.15;64.93;91123.16;2050215;70;20662;-76
2022/09/28 08:06:05;;;;;;;10.57;4.60;;;;;;;11.50;61.67;91129.19;2050173;70;20178;-75
2022/09/28 08:08:35;;;;;;;7.93;4.95;;;;;;;11.69;62.07;91128.41;2051040;70;20487;-76
2022/09/28 08:11:01;;;;;;;8.00;5.22;;;;;;;11.68;62.00;91121.31;2050406;70;20150;-75
2022/09/28 08:13:45;;;;;;;7.38;5.05;;;;;;;11.79;61.42;91119.53;2050360;70;20181;-76
2022/09/28 08:16:44;;;;;;;8.85;5.57;;;;;;;11.88;62.22;91121.25;2051010;70;20166;-76
2022/09/28 08:19:20;;;;;;;8.02;5.70;;;;;;;11.97;61.70;91120.13;2050191;70;20166;-75
2022/09/28 08:21:47;;;;;;;9.32;6.10;;;;;;;12.07;63.44;91120.44;2050172;70;20143;-75
2022/09/28 08:24:16;;;;;;;8.43;4.80;;;;;;;12.22;60.46;91121.56;2050153;70;20158;-78
2022/09/28 08:26:43;;;;;;;8.15;4.90;;;;;;;12.23;61.79;91119.44;2050706;70;20158;-77
2022/09/28 08:29:10;;;;;;;6.40;4.65;;;;;;;12.31;61.91;91122.53;2050849;70;20157;-77
2022/09/28 08:32:03;;;;;;;6.82;4.95;;;;;;;12.24;62.28;91126.56;2048602;70;20184;-78
2022/09/28 08:34:39;;;;;;;5.88;3.92;;;;;;;11.87;63.83;91120.53;2051628;70;20667;-77
2022/09/28 08:37:27;;;;;;;5.00;3.00;;;;;;;12.26;61.60;91132.97;2051389;70;20161;-77
2022/09/28 08:40:12;;;;;;;6.15;3.53;;;;;;;12.65;60.30;91134.09;2051608;70;20563;-77
2022/09/28 08:43:01;;;;;;;5.10;3.20;;;;;;;12.81;60.72;91131.69;2048937;70;20307;-77
2022/09/28 08:45:59;;;;;;;4.80;3.47;;;;;;;12.72;60.29;91130.75;2048844;70;20186;-76
2022/09/28 08:49:05;;;;;;;11.95;6.63;;;;;;;12.90;60.32;91127.72;2047539;70;20177;-78
2022/09/28 08:52:00;;;;;;;9.07;5.93;;;;;;;12.53;61.12;91131.63;2048466;70;20150;-78
2022/09/28 08:54:55;;;;;;;10.05;5.70;;;;;;;12.67;61.29;91132.03;2051528;70;20225;-78
2022/09/28 08:57:37;;;;;;;10.25;5.68;;;;;;;13.09;58.75;91126.09;2051097;70;20182;-77
2022/09/28 09:00:05;;;;;;;6.97;4.15;;;;;;;13.39;58.39;91133.97;2050386;70;20177;-77
2022/09/28 09:02:38;;;;;;;6.40;3.90;;;;;;;13.40;58.25;91136.09;2048152;70;20145;-75
2022/09/28 09:05:19;;;;;;;3.42;2.20;;;;;;;13.53;58.46;91139.97;2051439;70;20217;-77
2022/09/28 09:08:05;;;;;;;4.25;2.50;;;;;;;13.25;58.79;91144.91;2051337;70;20170;-76
2022/09/28 09:10:50;;;;;;;4.47;2.33;;;;;;;13.46;57.71;91129.88;2050959;70;20625;-77
2022/09/28 09:13:44;;;;;;;4.38;2.78;;;;;;;13.79;56.12;91125.75;2048218;70;20201;-76
2022/09/28 09:16:43;;;;;;;3.17;2.30;;;;;;;13.70;55.66;91132.59;2050724;70;20154;-75
2022/09/28 09:19:37;;;;;;;3.88;2.50;;;;;;;14.04;55.58;91126.31;2037238;70;20154;-77
2022/09/28 09:22:32;;;;;;;5.07;2.92;;;;;;;14.17;55.68;91125.91;2032330;70;20156;-79
2022/09/28 09:25:41;;;;;;;3.78;2.50;;;;;;;14.27;55.17;91121.88;2037236;70;20148;-78
2022/09/28 09:28:35;;;;;;;3.42;2.45;;;;;;;14.51;54.96;91116.75;2030718;70;20579;-77
2022/09/28 09:31:01;;;;;;;5.15;2.70;;;;;;;14.67;55.47;91114.28;2027931;70;20149;-78
2022/09/28 09:33:41;;;;;;;6.97;2.20;;;;;;;14.59;55.79;91116.94;2030305;70;20140;-76
2022/09/28 09:37:07;;;;;;;2.45;1.90;;;;;;;14.67;55.27;91108.59;2030617;70;20208;-77
2022/09/28 09:40:15;;;;;;;3.10;2.10;;;;;;;14.47;53.63;91108.88;2030479;70;20152;-77
2022/09/28 09:43:23;;;;;;;1.63;1.10;;;;;;;14.72;52.09;91104.47;2030634;70;20228;-77
2022/09/28 09:46:09;;;;;;;1.85;1.40;;;;;;;14.54;53.70;91098.44;2030519;70;20689;-77
2022/09/28 09:49:19;;;;;;;1.77;1.33;;;;;;;14.87;51.24;91101.91;2030243;70;20221;-77
2022/09/28 09:51:56;;;;;;;3.25;1.90;;;;;;;15.05;51.21;91081.69;2030649;70;20160;-78
2022/09/28 09:54:30;;;;;;;2.10;1.40;;;;;;;15.37;50.67;91087.25;2027864;70;20155;-77
2022/09/28 09:57:02;;;;;;;2.45;1.48;;;;;;;14.99;51.29;91087.97;2041991;70;20155;-78
2022/09/28 09:59:48;;;;;;;2.20;1.23;;;;;;;15.71;51.10;91076.50;2043820;70;20165;-77
2022/09/28 10:02:33;;;;;;;1.42;1.00;;;;;;;15.86;51.52;91082.41;2048404;70;20154;-77
2022/09/28 10:05:09;;;;;;;2.60;1.10;;;;;;;16.18;50.34;91077.22;2050765;70;20260;-77
2022/09/28 10:07:49;;;;;;;1.27;1.10;;;;;;;15.90;48.63;91077.50;2050722;70;20492;-78
2022/09/28 10:10:35;;;;;;;3.03;1.20;;;;;;;15.71;50.04;91072.94;2050471;70;20285;-77
2022/09/28 10:13:10;;;;;;;2.42;1.65;;;;;;;15.55;50.54;91070.53;2050312;70;20208;-77
2022/09/28 10:15:40;;;;;;;3.05;1.90;;;;;;;16.39;49.83;91081.03;2047596;70;20583;-77
2022/09/28 10:18:19;;;;;;;1.65;1.45;;;;;;;16.43;50.13;91080.38;2048010;70;20164;-78
2022/09/28 10:21:04;;;;;;;1.92;1.40;;;;;;;15.98;50.31;91080.44;2051384;70;20141;-78
2022/09/28 10:23:49;;;;;;;2.88;2.10;;;;;;;16.52;50.01;91074.09;2047974;70;20598;-80
2022/09/28 10:26:23;;;;;;;3.80;2.50;;;;;;;16.39;49.85;91081.03;2051230;70;20548;-76
2022/09/28 10:28:57;;;;;;;2.95;1.75;;;;;;;16.53;50.06;91075.53;2050614;70;20262;-78
2022/09/28 10:31:37;;;;;;;1.98;1.75;;;;;;;16.40;49.32;91079.66;2050691;70;20580;-79
2022/09/28 10:34:13;;;;;;;3.03;1.35;;;;;;;16.69;47.88;91077.88;2048099;70;20154;-76
2022/09/28 10:36:54;;;;;;;3.45;1.52;;;;;;;17.18;47.06;91080.56;2050409;70;20193;-76
2022/09/28 10:39:35;;;;;;;1.73;1.42;;;;;;;17.13;47.69;91082.66;2047306;70;20143;-77
2022/09/28 10:42:07;;;;;;;1.67;1.27;;;;;;;15.93;49.09;91072.56;2049936;70;20497;-76
2022/09/28 10:44:46;;;;;;;2.88;1.90;;;;;;;16.58;49.03;91073.47;2050033;70;20252;-77
2022/09/28 10:47:25;;;;;;;8.13;1.85;;;;;;;16.95;48.60;91066.16;2047210;70;20146;-76
2022/09/28 10:49:54;;;;;;;4.03;1.80;;;;;;;16.43;48.62;91071.84;2049794;70;20138;-76
2022/09/28 10:52:41;;;;;;;3.08;1.33;;;;;;;16.89;47.75;91068.19;2047255;70;20609;-77
2022/09/28 10:55:29;;;;;;;2.45;1.60;;;;;;;16.55;47.25;91065.63;2046737;70;20159;-76
2022/09/28 10:57:55;;;;;;;4.88;2.85;;;;;;;15.78;49.70;91060.28;2046584;70;20158;-76
2022/09/28 11:00:29;;;;;;;4.82;1.90;;;;;;;16.38;48.96;91053.34;2046662;70;20150;-75
2022/09/28 11:03:20;;;;;;;2.97;1.60;;;;;;;17.81;46.74;91049.19;2047948;70;20186;-74
2022/09/28 11:05:54;;;;;;;4.03;1.60;;;;;;;18.50;45.25;91056.06;2047890;70;20654;-73
2022/09/28 11:08:28;;;;;;;1.88;1.35;;;;;;;18.99;44.34;91038.47;2047715;70;20126;-75
2022/09/28 11:11:05;;;;;;;2.10;1.70;;;;;;;19.66;42.48;91038.66;2049770;70;20559;-76
2022/09/28 11:13:51;;;;;;;3.22;2.08;;;;;;;20.59;40.72;91042.88;2046838;70;20256;-75
2022/09/28 11:16:33;;;;;;;3.05;1.90;;;;;;;20.13;42.19;91041.50;2049766;70;20199;-75
2022/09/28 11:19:24;;;;;;;2.80;1.50;;;;;;;21.40;38.10;91044.75;2046300;70;20182;-76
2022/09/28 11:21:50;;;;;;;3.72;1.35;;;;;;;18.97;41.44;91050.59;2046586;70;20589;-74
2022/09/28 11:24:24;;;;;;;4.18;1.25;;;;;;;18.19;42.80;91049.47;2046713;70;20149;-76
2022/09/28 11:26:56;;;;;;;2.15;1.50;;;;;;;18.58;43.17;91044.00;2046887;70;20555;-76
2022/09/28 11:29:36;;;;;;;8.45;1.40;;;;;;;18.21;43.70;91031.69;2046686;70;20267;-75
2022/09/28 11:32:29;;;;;;;3.28;1.30;;;;;;;18.27;42.77;91023.16;2045135;70;20222;-74
2022/09/28 11:35:23;;;;;;;3.72;1.25;;;;;;;17.56;44.72;91019.81;2042100;70;20150;-76
2022/09/28 11:37:50;;;;;;;;;;;;;;;18.31;44.22;91025.31;2046815;70;20230;-76
2022/09/28 11:40:42;;;;;;;4.93;1.52;;;;;;;17.81;43.87;91032.13;2044024;70;20047;-76
2022/09/28 11:43:39;;;;;;;3.60;1.98;;;;;;;17.81;45.53;91023.56;2046791;70;20147;-77
2022/09/28 11:46:32;;;;;;;4.82;2.85;;;;;;;17.03;47.19;91026.41;2046077;70;20357;-75
2022/09/28 11:49:25;;;;;;;2.50;1.77;;;;;;;17.18;47.29;91029.41;2046308;70;20154;-75
2022/09/28 11:51:55;;;;;;;4.80;2.38;;;;;;;16.95;47.48;91026.34;2046980;70;20139;-75
2022/09/28 11:54:37;;;;;;;3.70;2.70;;;;;;;16.61;48.21;91023.09;2046463;70;20186;-73
2022/09/28 11:57:05;;;;;;;2.97;1.40;;;;;;;16.56;48.34;91022.31;2046273;70;20147;-75
2022/09/28 12:00:01;;;;;;;4.03;1.77;;;;;;;16.81;48.13;91011.25;2046326;70;20213;-75
2022/09/28 12:02:40;;;;;;;6.00;2.33;;;;;;;17.28;47.67;91012.47;2046827;70;20201;-76
2022/09/28 12:05:39;;;;;;;2.25;1.42;;;;;;;17.27;48.12;91025.22;2041905;70;20173;-76
2022/09/28 12:08:26;;;;;;;2.47;1.70;;;;;;;17.31;47.81;91027.41;2047916;70;20160;-77
2022/09/28 12:11:32;;;;;;;3.00;1.70;;;;;;;18.22;47.05;91022.44;2046008;70;20214;-76
2022/09/28 12:14:26;;;;;;;2.55;1.50;;;;;;;18.65;45.80;91025.50;2047704;70;20142;-77
2022/09/28 12:17:01;;;;;;;1.83;1.48;;;;;;;19.09;45.31;91020.69;2048350;70;20146;-77
2022/09/28 12:19:34;;;;;;;1.85;1.30;;;;;;;19.04;44.83;91011.41;2047962;70;20151;-76
2022/09/28 12:22:17;;;;;;;3.25;1.42;;;;;;;19.26;44.16;91027.88;2048506;70;20247;-76
2022/09/28 12:24:51;;;;;;;7.70;2.97;;;;;;;20.23;43.05;91027.22;2048460;70;20155;-77
2022/09/28 12:27:31;;;;;;;1.98;1.50;;;;;;;19.32;42.06;91022.16;2045149;70;20143;-76
2022/09/28 12:30:18;;;;;;;2.28;1.50;;;;;;;19.20;42.88;91027.88;2047778;70;20210;-75